createdAt,value
2023-05-05T00:00:29.406Z,67.4948
2023-05-05T00:01:32.070Z,67.8696
2023-05-05T00:02:34.661Z,68.2879
2023-05-05T00:03:37.267Z,68.2474
2023-05-05T00:04:37.197Z,68.0841
2023-05-05T00:05:39.914Z,67.7421
2023-05-05T00:06:42.566Z,67.0907
2023-05-05T00:07:45.092Z,66.4533
2023-05-05T00:08:47.599Z,66.4978
2023-05-05T00:09:50.134Z,67.3377
2023-05-05T00:10:52.774Z,68.2766
2023-05-05T00:11:55.367Z,68.7346
2023-05-05T00:12:57.901Z,69.0589
2023-05-05T00:14:00.396Z,69.1031
2023-05-05T00:15:02.875Z,69.4915
2023-05-05T00:16:05.367Z,69.6699
2023-05-05T00:17:07.878Z,70.1669
2023-05-05T00:18:10.375Z,70.1651
2023-05-05T00:19:12.879Z,70.1221
2023-05-05T00:20:15.449Z,70.1337
2023-05-05T00:21:17.944Z,70.1383
2023-05-05T00:22:20.538Z,70.1618
2023-05-05T00:23:23.217Z,69.8293
2023-05-05T00:24:25.745Z,69.8496
2023-05-05T00:25:28.290Z,69.7603
2023-05-05T00:26:30.838Z,70.0519
2023-05-05T00:27:33.332Z,70.3558
2023-05-05T00:28:35.839Z,70.3717
2023-05-05T00:29:38.368Z,70.1715
2023-05-05T00:30:40.933Z,70.2530
2023-05-05T00:31:43.524Z,70.6158
2023-05-05T00:32:46.120Z,70.2321
2023-05-05T00:33:48.612Z,70.1014
2023-05-05T00:34:51.130Z,69.9139
2023-05-05T00:35:53.638Z,69.9895
2023-05-05T00:36:56.132Z,70.0709
2023-05-05T00:37:58.709Z,69.8175
2023-05-05T00:39:01.246Z,69.6241
2023-05-05T00:40:03.913Z,69.3555
2023-05-05T00:41:06.388Z,69.5186
2023-05-05T00:42:08.967Z,69.7847
2023-05-05T00:43:11.511Z,69.6003
2023-05-05T00:44:14.082Z,69.4777
2023-05-05T00:45:16.655Z,69.3838
2023-05-05T00:46:19.589Z,69.9652
2023-05-05T00:47:19.269Z,69.9050
2023-05-05T00:48:21.740Z,69.6994
2023-05-05T00:49:24.278Z,69.5108
2023-05-05T00:50:26.762Z,69.9106
2023-05-05T00:51:29.316Z,70.2688
2023-05-05T00:52:31.813Z,70.4246
2023-05-05T00:53:34.383Z,70.5635
2023-05-05T00:54:36.956Z,70.3705
2023-05-05T00:55:39.577Z,70.3545
2023-05-05T00:56:42.075Z,70.6274
2023-05-05T00:57:44.628Z,71.0319
2023-05-05T00:58:47.245Z,71.0235
2023-05-05T00:59:47.332Z,71.1197
2023-05-05T01:00:49.860Z,71.7660
2023-05-05T01:01:52.498Z,72.4613
2023-05-05T01:02:55.237Z,72.2694
2023-05-05T01:03:55.331Z,71.8976
2023-05-05T01:04:57.841Z,72.2578
2023-05-05T01:06:00.425Z,72.2891
2023-05-05T01:07:03.003Z,71.9054
2023-05-05T01:08:05.611Z,71.9211
2023-05-05T01:09:08.236Z,72.0191
2023-05-05T01:10:19.559Z,72.1618
2023-05-05T01:11:10.871Z,71.1563
2023-05-05T01:12:13.512Z,70.8954
2023-05-05T01:13:16.114Z,70.2557
2023-05-05T01:14:18.686Z,69.2740
2023-05-05T01:15:21.229Z,69.4096
2023-05-05T01:16:23.850Z,69.7258
2023-05-05T01:17:23.768Z,70.0302
2023-05-05T01:18:26.315Z,70.9076
2023-05-05T01:19:28.920Z,71.7227
2023-05-05T01:20:31.499Z,72.4516
2023-05-05T01:21:34.070Z,73.0400
2023-05-05T01:22:36.631Z,73.5145
2023-05-05T01:23:39.236Z,74.2751
2023-05-05T01:24:41.803Z,74.4744
2023-05-05T01:25:44.349Z,74.3712
2023-05-05T01:26:46.942Z,74.2341
2023-05-05T01:27:49.514Z,74.0439
2023-05-05T01:28:52.100Z,74.3978
2023-05-05T01:29:54.689Z,74.5803
2023-05-05T01:30:57.315Z,74.7308
2023-05-05T01:31:59.886Z,75.7366
2023-05-05T01:33:02.508Z,75.7932
2023-05-05T01:34:05.093Z,75.6764
2023-05-05T01:35:07.696Z,75.6307
2023-05-05T01:36:10.196Z,75.7244
2023-05-05T01:37:12.806Z,75.3742
2023-05-05T01:38:15.382Z,75.4848
2023-05-05T01:39:18.029Z,75.2306
2023-05-05T01:40:20.606Z,74.9269
2023-05-05T01:41:23.239Z,74.8274
2023-05-05T01:42:25.865Z,74.8229
2023-05-05T01:43:28.446Z,74.7006
2023-05-05T01:44:31.069Z,74.4929
2023-05-05T01:45:33.778Z,74.5650
2023-05-05T01:46:36.395Z,74.5622
2023-05-05T01:47:39.033Z,74.1854
2023-05-05T01:48:42.370Z,74.5076
2023-05-05T01:49:42.287Z,74.6014
2023-05-05T01:50:44.910Z,74.7924
2023-05-05T01:51:47.495Z,74.6472
2023-05-05T01:52:50.066Z,74.4201
2023-05-05T01:53:52.668Z,73.8211
2023-05-05T01:54:55.222Z,73.7658
2023-05-05T01:55:57.823Z,73.5917
2023-05-05T01:57:00.340Z,73.5427
2023-05-05T01:58:02.963Z,73.7307
2023-05-05T01:59:05.507Z,73.7321
2023-05-05T02:00:08.280Z,74.0309
2023-05-05T02:01:08.307Z,73.6569
2023-05-05T02:02:10.992Z,73.4058
2023-05-05T02:03:13.706Z,73.8968
2023-05-05T02:04:16.378Z,73.7895
2023-05-05T02:05:18.954Z,73.4841
2023-05-05T02:06:21.603Z,73.7652
2023-05-05T02:07:24.200Z,74.2528
2023-05-05T02:08:26.827Z,74.0937
2023-05-05T02:09:29.428Z,73.4088
2023-05-05T02:10:32.079Z,72.9569
2023-05-05T02:11:34.701Z,72.1536
2023-05-05T02:12:37.377Z,71.2040
2023-05-05T02:13:40.049Z,69.9594
2023-05-05T02:14:42.618Z,69.6783
2023-05-05T02:15:45.297Z,69.0224
2023-05-05T02:16:47.877Z,68.6404
2023-05-05T02:17:50.488Z,67.8279
2023-05-05T02:18:53.105Z,67.1339
2023-05-05T02:19:55.737Z,67.2099
2023-05-05T02:20:58.307Z,67.0451
2023-05-05T02:22:00.893Z,66.8180
2023-05-05T02:23:03.465Z,67.8337
2023-05-05T02:24:06.079Z,69.7356
2023-05-05T02:25:08.719Z,70.3306
2023-05-05T02:26:11.332Z,70.8838
2023-05-05T02:27:13.933Z,70.1162
2023-05-05T02:28:16.521Z,69.1459
2023-05-05T02:29:19.215Z,70.5560
2023-05-05T02:30:22.041Z,71.3551
2023-05-05T02:31:22.100Z,71.8759
2023-05-05T02:32:22.133Z,72.2523
2023-05-05T02:33:22.139Z,72.0748
2023-05-05T02:34:24.726Z,72.8315
2023-05-05T02:35:27.435Z,73.3598
2023-05-05T02:36:29.972Z,73.6744
2023-05-05T02:37:32.562Z,73.8674
2023-05-05T02:38:35.138Z,74.3804
2023-05-05T02:39:37.695Z,74.7616
2023-05-05T02:40:40.350Z,75.0681
2023-05-05T02:41:42.975Z,75.3495
2023-05-05T02:42:45.606Z,75.1960
2023-05-05T02:43:48.225Z,75.1460
2023-05-05T02:44:50.815Z,75.5688
2023-05-05T02:45:53.417Z,75.9197
2023-05-05T02:46:56.061Z,75.8796
2023-05-05T02:47:58.688Z,75.9281
2023-05-05T02:49:01.261Z,75.9546
2023-05-05T02:50:03.915Z,76.3256
2023-05-05T02:51:06.550Z,76.7444
2023-05-05T02:52:09.137Z,76.7303
2023-05-05T02:53:11.764Z,76.6630
2023-05-05T02:54:14.389Z,76.5990
2023-05-05T02:55:17.084Z,76.3705
2023-05-05T02:56:19.714Z,76.9881
2023-05-05T02:57:22.402Z,77.1626
2023-05-05T02:58:25.103Z,77.2450
2023-05-05T02:59:27.745Z,77.1665
2023-05-05T03:00:30.292Z,77.1484
2023-05-05T03:01:32.977Z,76.9754
2023-05-05T03:02:35.710Z,76.6218
2023-05-05T03:03:35.546Z,76.3617
2023-05-05T03:04:38.098Z,75.8765
2023-05-05T03:05:40.732Z,75.6397
2023-05-05T03:06:43.294Z,75.7506
2023-05-05T03:07:45.819Z,76.0592
2023-05-05T03:08:48.391Z,76.1972
2023-05-05T03:09:51.065Z,76.4197
2023-05-05T03:10:53.622Z,76.2474
2023-05-05T03:11:56.337Z,75.7648
2023-05-05T03:12:58.940Z,76.1725
2023-05-05T03:14:01.558Z,76.5370
2023-05-05T03:15:04.151Z,76.3948
2023-05-05T03:16:06.895Z,76.3659
2023-05-05T03:17:09.486Z,75.6506
2023-05-05T03:18:09.481Z,75.3099
2023-05-05T03:19:12.254Z,75.0059
2023-05-05T03:20:15.030Z,75.5371
2023-05-05T03:21:17.655Z,75.7711
2023-05-05T03:22:20.256Z,76.1307
2023-05-05T03:23:22.950Z,76.2658
2023-05-05T03:24:25.594Z,75.8914
2023-05-05T03:25:28.219Z,76.0186
2023-05-05T03:26:30.828Z,76.0922
2023-05-05T03:27:33.438Z,75.7907
2023-05-05T03:28:35.991Z,75.5271
2023-05-05T03:29:38.592Z,74.7078
2023-05-05T03:30:41.198Z,74.1625
2023-05-05T03:31:43.886Z,73.3411
2023-05-05T03:32:46.505Z,72.6519
2023-05-05T03:33:49.041Z,72.3988
2023-05-05T03:34:51.603Z,72.1728
2023-05-05T03:35:54.165Z,71.6913
2023-05-05T03:36:56.744Z,71.2471
2023-05-05T03:37:59.273Z,71.6099
2023-05-05T03:39:01.777Z,72.1200
2023-05-05T03:40:04.347Z,72.3643
2023-05-05T03:41:06.921Z,72.3407
2023-05-05T03:42:09.533Z,72.2026
2023-05-05T03:43:12.065Z,72.2774
2023-05-05T03:44:14.675Z,71.9427
2023-05-05T03:45:17.259Z,71.4884
2023-05-05T03:46:19.886Z,71.3119
2023-05-05T03:47:22.474Z,70.9731
2023-05-05T03:48:25.061Z,70.8621
2023-05-05T03:49:27.634Z,70.5293
2023-05-05T03:50:30.216Z,70.2747
2023-05-05T03:51:32.789Z,70.0743
2023-05-05T03:52:35.372Z,69.9505
2023-05-05T03:53:38.025Z,69.7219
2023-05-05T03:54:40.608Z,69.3459
2023-05-05T03:55:43.246Z,68.5559
2023-05-05T03:56:45.816Z,68.7396
2023-05-05T03:57:48.457Z,69.0577
2023-05-05T03:58:51.056Z,69.5680
2023-05-05T03:59:53.610Z,69.6716
2023-05-05T04:00:56.208Z,70.0654
2023-05-05T04:01:58.829Z,70.0143
2023-05-05T04:03:01.523Z,70.5604
2023-05-05T04:04:04.208Z,70.1883
2023-05-05T04:05:06.760Z,70.2440
2023-05-05T04:06:09.338Z,70.8005
2023-05-05T04:07:11.917Z,71.2785
2023-05-05T04:08:14.491Z,70.9868
2023-05-05T04:09:17.035Z,70.3585
2023-05-05T04:10:19.660Z,70.0096
2023-05-05T04:11:22.264Z,70.1244
2023-05-05T04:12:24.886Z,70.0467
2023-05-05T04:13:27.429Z,69.7938
2023-05-05T04:14:29.991Z,70.3113
2023-05-05T04:15:32.555Z,71.4499
2023-05-05T04:16:35.127Z,71.8382
2023-05-05T04:17:37.813Z,72.1442
2023-05-05T04:18:40.407Z,72.1761
2023-05-05T04:19:43.020Z,72.7209
2023-05-05T04:20:45.594Z,73.6091
2023-05-05T04:21:48.190Z,73.8585
2023-05-05T04:22:52.597Z,73.7776
2023-05-05T04:23:52.718Z,73.1172
2023-05-05T04:24:55.334Z,72.8319
2023-05-05T04:25:57.900Z,73.1053
2023-05-05T04:27:00.495Z,73.5208
2023-05-05T04:28:03.117Z,73.5539
2023-05-05T04:29:05.676Z,73.4455
2023-05-05T04:30:08.520Z,73.5273
2023-05-05T04:31:08.458Z,73.7809
2023-05-05T04:32:11.134Z,72.9551
2023-05-05T04:33:13.761Z,73.1326
2023-05-05T04:34:16.394Z,72.4864
2023-05-05T04:35:18.962Z,72.1627
2023-05-05T04:36:18.994Z,72.2961
2023-05-05T04:37:19.268Z,72.9809
2023-05-05T04:38:21.879Z,72.0736
2023-05-05T04:39:24.437Z,71.7861
2023-05-05T04:40:26.971Z,71.4064
2023-05-05T04:41:30.153Z,71.8389
2023-05-05T04:42:30.057Z,72.3865
2023-05-05T04:43:32.735Z,72.5059
2023-05-05T04:44:35.319Z,72.5030
2023-05-05T04:45:37.866Z,71.8556
2023-05-05T04:46:40.504Z,71.9237
2023-05-05T04:47:43.090Z,71.9545
2023-05-05T04:48:45.626Z,72.1126
2023-05-05T04:49:48.217Z,71.9060
2023-05-05T04:50:50.785Z,72.4482
2023-05-05T04:51:53.511Z,72.3024
2023-05-05T04:52:56.095Z,72.5721
2023-05-05T04:53:58.669Z,72.7250
2023-05-05T04:55:01.266Z,72.6440
2023-05-05T04:56:03.867Z,72.6255
2023-05-05T04:57:06.437Z,73.9501
2023-05-05T04:58:09.070Z,74.7582
2023-05-05T04:59:11.676Z,75.0145
2023-05-05T05:00:14.271Z,74.8806
2023-05-05T05:01:16.849Z,74.6346
2023-05-05T05:02:19.597Z,73.7792
2023-05-05T05:03:19.552Z,73.0620
2023-05-05T05:04:19.508Z,72.0601
2023-05-05T05:05:22.281Z,71.3648
2023-05-05T05:06:24.908Z,69.9051
2023-05-05T05:07:27.488Z,69.7140
2023-05-05T05:08:30.076Z,70.1156
2023-05-05T05:09:32.706Z,71.7279
2023-05-05T05:10:35.433Z,72.4151
2023-05-05T05:11:37.990Z,73.4230
2023-05-05T05:12:40.635Z,74.8489
2023-05-05T05:13:43.169Z,75.2520
2023-05-05T05:14:45.746Z,75.5736
2023-05-05T05:15:48.301Z,75.8086
2023-05-05T05:16:50.924Z,76.2079
2023-05-05T05:17:53.601Z,76.7553
2023-05-05T05:18:56.211Z,77.2735
2023-05-05T05:19:58.801Z,77.8001
2023-05-05T05:21:01.435Z,78.1187
2023-05-05T05:22:04.012Z,78.2374
2023-05-05T05:23:06.720Z,78.7041
2023-05-05T05:24:09.260Z,78.8164
2023-05-05T05:25:11.853Z,79.4624
2023-05-05T05:26:14.402Z,80.0663
2023-05-05T05:27:17.019Z,79.9464
2023-05-05T05:28:19.640Z,80.2104
2023-05-05T05:29:22.236Z,80.0693
2023-05-05T05:30:24.802Z,80.1630
2023-05-05T05:31:27.372Z,80.0666
2023-05-05T05:32:30.019Z,80.0125
2023-05-05T05:33:32.657Z,79.7543
2023-05-05T05:34:35.474Z,79.9562
2023-05-05T05:35:35.279Z,79.9603
2023-05-05T05:36:37.878Z,80.0619
2023-05-05T05:37:40.496Z,80.0173
2023-05-05T05:38:43.177Z,80.0028
2023-05-05T05:39:45.793Z,79.7109
2023-05-05T05:40:48.379Z,79.9098
2023-05-05T05:41:51.043Z,79.9609
2023-05-05T05:42:53.686Z,80.0345
2023-05-05T05:43:56.320Z,80.1178
2023-05-05T05:44:59.120Z,79.9081
2023-05-05T05:45:58.889Z,80.1942
2023-05-05T05:47:01.501Z,79.5061
2023-05-05T05:48:04.101Z,79.3919
2023-05-05T05:49:06.681Z,79.4086
2023-05-05T05:50:09.478Z,79.4754
2023-05-05T05:51:09.413Z,79.3325
2023-05-05T05:52:11.992Z,79.2024
2023-05-05T05:53:14.574Z,78.8456
2023-05-05T05:54:17.170Z,78.1567
2023-05-05T05:55:19.728Z,77.3204
2023-05-05T05:56:22.275Z,76.8704
2023-05-05T05:57:24.899Z,76.4077
2023-05-05T05:58:27.528Z,76.6408
2023-05-05T05:59:30.185Z,76.3948
2023-05-05T06:00:32.944Z,75.9701
2023-05-05T06:01:32.920Z,75.9097
2023-05-05T06:02:35.626Z,75.5766
2023-05-05T06:03:38.441Z,75.7850
2023-05-05T06:04:38.329Z,75.4411
2023-05-05T06:05:40.965Z,73.4732
2023-05-05T06:06:43.623Z,72.9581
2023-05-05T06:07:46.280Z,73.7778
2023-05-05T06:08:48.959Z,74.0232
2023-05-05T06:09:51.591Z,74.3799
2023-05-05T06:10:54.280Z,75.2812
2023-05-05T06:11:56.981Z,75.0471
2023-05-05T06:12:59.693Z,74.9221
2023-05-05T06:13:59.604Z,75.1828
2023-05-05T06:15:02.266Z,75.3849
2023-05-05T06:16:05.007Z,75.1460
2023-05-05T06:17:07.575Z,74.6994
2023-05-05T06:18:10.414Z,73.7892
2023-05-05T06:19:10.455Z,73.1945
2023-05-05T06:20:13.047Z,72.6442
2023-05-05T06:21:15.687Z,72.1239
2023-05-05T06:22:18.467Z,71.1254
2023-05-05T06:23:18.295Z,70.5707
2023-05-05T06:24:21.075Z,70.3109
2023-05-05T06:25:20.919Z,70.1919
2023-05-05T06:26:23.554Z,69.3803
2023-05-05T06:27:26.154Z,69.7469
2023-05-05T06:28:28.788Z,70.0175
2023-05-05T06:29:31.388Z,69.4833
2023-05-05T06:30:33.995Z,69.3439
2023-05-05T06:31:36.691Z,70.3317
2023-05-05T06:32:39.451Z,70.0490
2023-05-05T06:33:42.101Z,69.1480
2023-05-05T06:34:44.723Z,68.2571
2023-05-05T06:35:47.354Z,66.6076
2023-05-05T06:36:50.151Z,65.0149
2023-05-05T06:37:52.779Z,64.6186
2023-05-05T06:38:55.445Z,65.2827
2023-05-05T06:39:58.075Z,66.3692
2023-05-05T06:41:00.737Z,66.8154
2023-05-05T06:42:03.428Z,66.2070
2023-05-05T06:43:06.083Z,64.9436
2023-05-05T06:44:08.718Z,64.5882
2023-05-05T06:45:11.358Z,65.5267
2023-05-05T06:46:11.386Z,65.4298
2023-05-05T06:47:11.361Z,64.3414
2023-05-05T06:48:11.327Z,64.8579
2023-05-05T06:49:13.990Z,64.2249
2023-05-05T06:50:16.593Z,64.0433
2023-05-05T06:51:19.200Z,63.3421
2023-05-05T06:52:21.991Z,62.4829
2023-05-05T06:53:21.800Z,62.4600
2023-05-05T06:54:24.357Z,63.1879
2023-05-05T06:55:27.013Z,62.1508
2023-05-05T06:56:29.634Z,62.7093
2023-05-05T06:57:32.244Z,61.9418
2023-05-05T06:58:34.874Z,62.6241
2023-05-05T06:59:37.465Z,63.5259
2023-05-05T07:00:40.070Z,62.2726
2023-05-05T07:01:42.667Z,61.6345
2023-05-05T07:02:45.340Z,61.2759
2023-05-05T07:03:48.032Z,61.9147
2023-05-05T07:04:47.988Z,62.3444
2023-05-05T07:05:50.622Z,61.5411
2023-05-05T07:06:53.272Z,60.5662
2023-05-05T07:07:55.850Z,60.9841
2023-05-05T07:08:58.452Z,61.5081
2023-05-05T07:10:01.087Z,61.6550
2023-05-05T07:11:03.790Z,61.6537
2023-05-05T07:12:06.416Z,61.9006
2023-05-05T07:13:09.079Z,60.6671
2023-05-05T07:14:09.077Z,60.2435
2023-05-05T07:15:26.052Z,60.7198
2023-05-05T07:16:11.917Z,60.7730
2023-05-05T07:17:14.532Z,60.6119
2023-05-05T07:18:17.165Z,60.2667
2023-05-05T07:19:19.820Z,60.3784
2023-05-05T07:20:22.415Z,60.3893
2023-05-05T07:21:25.082Z,61.1145
2023-05-05T07:22:27.659Z,60.6935
2023-05-05T07:23:30.239Z,60.5879
2023-05-05T07:24:32.866Z,60.8017
2023-05-05T07:25:35.486Z,60.5076
2023-05-05T07:26:38.232Z,60.7214
2023-05-05T07:27:40.777Z,60.3966
2023-05-05T07:28:43.385Z,60.0386
2023-05-05T07:29:46.015Z,59.5154
2023-05-05T07:30:48.622Z,60.1903
2023-05-05T07:31:51.393Z,60.8089
2023-05-05T07:32:51.356Z,60.4169
2023-05-05T07:33:51.264Z,60.3194
2023-05-05T07:34:53.850Z,60.0052
2023-05-05T07:35:56.456Z,60.0640
2023-05-05T07:36:59.112Z,59.7064
2023-05-05T07:38:01.686Z,59.9559
2023-05-05T07:39:04.317Z,60.3166
2023-05-05T07:40:07.169Z,61.0012
2023-05-05T07:41:07.186Z,60.6635
2023-05-05T07:42:09.819Z,60.8870
2023-05-05T07:43:12.464Z,61.0508
2023-05-05T07:44:15.041Z,60.6924
2023-05-05T07:45:17.659Z,60.4283
2023-05-05T07:46:20.336Z,60.8734
2023-05-05T07:47:20.225Z,60.3902
2023-05-05T07:48:22.779Z,60.1502
2023-05-05T07:49:25.405Z,60.0501
2023-05-05T07:50:28.040Z,59.5709
2023-05-05T07:51:32.023Z,59.4811
2023-05-05T07:52:45.365Z,60.0265
2023-05-05T07:53:33.119Z,60.6770
2023-05-05T07:54:35.818Z,60.9384
2023-05-05T07:55:38.349Z,60.4395
2023-05-05T07:56:40.999Z,60.8473
2023-05-05T07:57:43.726Z,60.5208
2023-05-05T07:58:46.325Z,60.4666
2023-05-05T07:59:48.977Z,60.3571
2023-05-05T08:00:51.606Z,60.3512
2023-05-05T08:01:55.037Z,60.0795
2023-05-05T08:02:55.016Z,60.1336
2023-05-05T08:03:57.626Z,59.3787
2023-05-05T08:05:00.241Z,59.6185
2023-05-05T08:06:02.804Z,59.4591
2023-05-05T08:07:05.376Z,59.5927
2023-05-05T08:08:08.141Z,59.7060
2023-05-05T08:09:10.685Z,60.1130
2023-05-05T08:10:13.308Z,59.8337
2023-05-05T08:11:15.935Z,60.0225
2023-05-05T08:12:18.494Z,60.2479
2023-05-05T08:13:21.175Z,60.0073
2023-05-05T08:14:23.770Z,60.4632
2023-05-05T08:15:26.372Z,60.1748
2023-05-05T08:16:28.996Z,59.6988
2023-05-05T08:17:31.571Z,59.5862
2023-05-05T08:18:34.240Z,59.6717
2023-05-05T08:19:36.763Z,59.3942
2023-05-05T08:20:39.373Z,58.9713
2023-05-05T08:21:41.973Z,59.3307
2023-05-05T08:22:44.642Z,58.6681
2023-05-05T08:23:47.298Z,58.6713
2023-05-05T08:24:49.903Z,58.9307
2023-05-05T08:25:52.509Z,58.9364
2023-05-05T08:26:55.126Z,58.9973
2023-05-05T08:27:55.402Z,58.0026
2023-05-05T08:28:58.064Z,57.2032
2023-05-05T08:30:00.600Z,56.9391
2023-05-05T08:31:03.237Z,56.6914
2023-05-05T08:32:05.801Z,56.0647
2023-05-05T08:33:08.467Z,56.0508
2023-05-05T08:34:11.073Z,55.9010
2023-05-05T08:35:13.859Z,55.9357
2023-05-05T08:36:13.970Z,56.0466
2023-05-05T08:37:16.629Z,56.8357
2023-05-05T08:38:19.189Z,57.3581
2023-05-05T08:39:21.767Z,56.2928
2023-05-05T08:40:24.290Z,55.8540
2023-05-05T08:41:26.915Z,55.2402
2023-05-05T08:42:37.253Z,55.1392
2023-05-05T08:43:29.540Z,55.0075
2023-05-05T08:44:32.122Z,54.7521
2023-05-05T08:45:34.718Z,54.9577
2023-05-05T08:46:37.353Z,54.6385
2023-05-05T08:47:39.966Z,55.0315
2023-05-05T08:48:42.589Z,55.8283
2023-05-05T08:49:45.312Z,55.7214
2023-05-05T08:50:47.855Z,54.7938
2023-05-05T08:51:50.447Z,54.7281
2023-05-05T08:52:51.383Z,54.6244
2023-05-05T08:53:51.306Z,55.3749
2023-05-05T08:54:53.887Z,54.6239
2023-05-05T08:55:56.515Z,54.7005
2023-05-05T08:56:59.065Z,55.5394
2023-05-05T08:58:01.673Z,54.9887
2023-05-05T08:59:04.323Z,55.0296
2023-05-05T09:00:06.878Z,54.3062
2023-05-05T09:01:09.479Z,54.6276
2023-05-05T09:02:12.058Z,54.8618
2023-05-05T09:03:14.728Z,55.2362
2023-05-05T09:04:14.661Z,55.8519
2023-05-05T09:05:17.202Z,55.2388
2023-05-05T09:06:19.739Z,56.5557
2023-05-05T09:07:22.322Z,55.9804
2023-05-05T09:08:24.887Z,55.8241
2023-05-05T09:09:27.390Z,55.7219
2023-05-05T09:10:29.990Z,56.5162
2023-05-05T09:11:32.577Z,56.3648
2023-05-05T09:12:35.138Z,55.3397
2023-05-05T09:13:37.647Z,54.9455
2023-05-05T09:14:40.192Z,54.8661
2023-05-05T09:15:42.720Z,54.5420
2023-05-05T09:16:45.297Z,53.2526
2023-05-05T09:17:47.893Z,53.5113
2023-05-05T09:18:50.485Z,53.7641
2023-05-05T09:19:53.026Z,53.8976
2023-05-05T09:20:56.878Z,53.8720
2023-05-05T09:21:55.759Z,53.4563
2023-05-05T09:22:58.296Z,54.3640
2023-05-05T09:24:07.433Z,54.4068
2023-05-05T09:25:00.913Z,54.3359
2023-05-05T09:26:03.505Z,54.9264
2023-05-05T09:27:06.030Z,53.8956
2023-05-05T09:28:08.656Z,53.1950
2023-05-05T09:29:11.190Z,53.0003
2023-05-05T09:30:13.776Z,53.0825
2023-05-05T09:31:16.517Z,52.8124
2023-05-05T09:32:16.403Z,53.0202
2023-05-05T09:33:19.026Z,52.7078
2023-05-05T09:34:21.547Z,52.8134
2023-05-05T09:35:24.095Z,52.9593
2023-05-05T09:36:24.034Z,52.7573
2023-05-05T09:37:26.622Z,53.0028
2023-05-05T09:38:29.168Z,53.4236
2023-05-05T09:39:31.799Z,53.9307
2023-05-05T09:40:34.407Z,54.8512
2023-05-05T09:41:36.944Z,54.3922
2023-05-05T09:42:39.460Z,54.6102
2023-05-05T09:43:40.292Z,53.8188
2023-05-05T09:44:42.832Z,53.3411
2023-05-05T09:45:45.409Z,53.7354
2023-05-05T09:46:48.044Z,54.4676
2023-05-05T09:47:47.913Z,53.6491
2023-05-05T09:48:47.841Z,52.2044
2023-05-05T09:49:50.354Z,51.5233
2023-05-05T09:50:52.923Z,52.6325
2023-05-05T09:51:55.534Z,53.4419
2023-05-05T09:52:58.076Z,53.9104
2023-05-05T09:54:00.664Z,53.8796
2023-05-05T09:55:03.236Z,53.7183
2023-05-05T09:56:05.902Z,53.8857
2023-05-05T09:57:08.527Z,54.1513
2023-05-05T09:58:11.128Z,53.7254
2023-05-05T09:59:13.672Z,53.5615
2023-05-05T10:00:16.230Z,52.9483
2023-05-05T10:01:18.855Z,52.0747
2023-05-05T10:02:21.404Z,52.2991
2023-05-05T10:03:23.953Z,52.9042
2023-05-05T10:04:26.528Z,52.0307
2023-05-05T10:05:29.109Z,51.7926
2023-05-05T10:06:31.733Z,50.8400
2023-05-05T10:07:34.264Z,51.9021
2023-05-05T10:08:36.777Z,51.4669
2023-05-05T10:09:39.258Z,52.2109
2023-05-05T10:10:41.882Z,52.3949
2023-05-05T10:11:44.405Z,51.8614
2023-05-05T10:12:46.955Z,50.6337
2023-05-05T10:13:49.497Z,50.9282
2023-05-05T10:14:52.010Z,51.6256
2023-05-05T10:15:54.583Z,52.4953
2023-05-05T10:16:57.103Z,52.5673
2023-05-05T10:18:06.720Z,52.6150
2023-05-05T10:18:59.611Z,51.6101
2023-05-05T10:20:02.157Z,50.4169
2023-05-05T10:21:04.737Z,49.2876
2023-05-05T10:22:07.283Z,50.3867
2023-05-05T10:23:09.833Z,50.3745
2023-05-05T10:24:12.418Z,49.8067
2023-05-05T10:25:14.929Z,50.4179
2023-05-05T10:26:17.458Z,48.6489
2023-05-05T10:27:19.997Z,50.2593
2023-05-05T10:28:22.568Z,49.6734
2023-05-05T10:29:25.094Z,48.3056
2023-05-05T10:30:27.623Z,49.5318
2023-05-05T10:31:30.323Z,48.8722
2023-05-05T10:32:51.150Z,49.0179
2023-05-05T10:33:32.906Z,48.8113
2023-05-05T10:34:35.540Z,47.7073
2023-05-05T10:35:38.081Z,50.3662
2023-05-05T10:36:40.602Z,49.3892
2023-05-05T10:37:43.137Z,48.9814
2023-05-05T10:38:45.690Z,49.4572
2023-05-05T10:39:48.236Z,49.8881
2023-05-05T10:40:50.756Z,51.0468
2023-05-05T10:41:53.321Z,52.0805
2023-05-05T10:42:55.832Z,51.3423
2023-05-05T10:43:58.358Z,51.2771
2023-05-05T10:45:00.946Z,51.4119
2023-05-05T10:46:00.907Z,50.7607
2023-05-05T10:47:00.990Z,49.8009
2023-05-05T10:48:03.638Z,49.0731
2023-05-05T10:49:03.443Z,50.0905
2023-05-05T10:50:06.135Z,50.3075
2023-05-05T10:51:05.978Z,50.3882
2023-05-05T10:52:08.647Z,50.4329
2023-05-05T10:53:08.485Z,50.1840
2023-05-05T10:54:11.072Z,49.7597
2023-05-05T10:55:13.664Z,48.6121
2023-05-05T10:56:16.184Z,49.6439
2023-05-05T10:57:18.802Z,49.3905
2023-05-05T10:58:21.368Z,48.9105
2023-05-05T10:59:23.923Z,48.8842
2023-05-05T11:00:26.479Z,48.6447
2023-05-05T11:01:29.205Z,48.4745
2023-05-05T11:02:29.159Z,47.3949
2023-05-05T11:03:29.056Z,46.2926
2023-05-05T11:04:31.727Z,48.4635
2023-05-05T11:05:34.292Z,48.0308
2023-05-05T11:06:36.880Z,47.1209
2023-05-05T11:07:39.480Z,47.4709
2023-05-05T11:08:42.032Z,47.4305
2023-05-05T11:09:44.637Z,46.9632
2023-05-05T11:10:47.205Z,48.5693
2023-05-05T11:11:49.754Z,47.0024
2023-05-05T11:12:52.498Z,47.1509
2023-05-05T11:13:52.540Z,46.9519
2023-05-05T11:14:55.090Z,45.7627
2023-05-05T11:15:57.615Z,45.5858
2023-05-05T11:17:00.163Z,44.4978
2023-05-05T11:18:06.640Z,45.2173
2023-05-05T11:19:04.305Z,44.4347
2023-05-05T11:20:06.983Z,43.4696
2023-05-05T11:21:07.077Z,42.8395
2023-05-05T11:22:09.936Z,42.6522
2023-05-05T11:23:09.788Z,42.0808
2023-05-05T11:24:10.590Z,41.3609
2023-05-05T11:25:13.196Z,40.7282
2023-05-05T11:26:15.668Z,39.9960
2023-05-05T11:27:18.183Z,41.7884
2023-05-05T11:28:18.011Z,40.4165
2023-05-05T11:29:20.474Z,41.0468
2023-05-05T11:30:22.990Z,42.3867
2023-05-05T11:31:25.510Z,41.8235
2023-05-05T11:32:27.969Z,39.6520
2023-05-05T11:33:30.461Z,40.7803
2023-05-05T11:34:32.860Z,43.1257
2023-05-05T11:35:35.321Z,42.3322
2023-05-05T11:36:37.742Z,43.4262
2023-05-05T11:37:40.193Z,42.3431
2023-05-05T11:38:42.643Z,42.4937
2023-05-05T11:39:45.027Z,41.3954
2023-05-05T11:40:47.518Z,42.1553
2023-05-05T11:41:49.954Z,40.2603
2023-05-05T11:42:52.422Z,42.7619
2023-05-05T11:43:54.807Z,43.5882
2023-05-05T11:44:57.250Z,42.5651
2023-05-05T11:45:59.682Z,41.0795
2023-05-05T11:47:02.094Z,40.6599
2023-05-05T11:48:04.583Z,40.5502
2023-05-05T11:49:04.408Z,40.1312
2023-05-05T11:50:04.368Z,39.3415
2023-05-05T11:51:03.977Z,38.4675
2023-05-05T11:52:06.402Z,39.8185
2023-05-05T11:53:08.794Z,40.6831
2023-05-05T11:54:11.335Z,39.3952
2023-05-05T11:55:13.742Z,39.9253
2023-05-05T11:56:16.241Z,40.5502
2023-05-05T11:57:18.626Z,40.6618
2023-05-05T11:58:21.018Z,42.5187
2023-05-05T11:59:20.820Z,40.8065
2023-05-05T12:00:20.740Z,42.1289
2023-05-05T12:01:20.701Z,41.8169
2023-05-05T12:02:20.655Z,44.0952
2023-05-05T12:03:20.685Z,42.6982
2023-05-05T12:04:20.765Z,41.7752
2023-05-05T12:05:20.705Z,42.8412
2023-05-05T12:06:20.699Z,42.8601
2023-05-05T12:07:20.705Z,41.8331
2023-05-05T12:08:20.708Z,41.5717
2023-05-05T12:09:20.701Z,42.0621
2023-05-05T12:10:20.701Z,41.1699
2023-05-05T12:11:20.678Z,39.5246
2023-05-05T12:12:20.689Z,39.3333
2023-05-05T12:13:20.806Z,40.1721
2023-05-05T12:14:20.876Z,41.2379
2023-05-05T12:15:20.837Z,39.1877
2023-05-05T12:16:20.849Z,40.1789
2023-05-05T12:17:20.766Z,41.0081
2023-05-05T12:18:20.766Z,39.4362
2023-05-05T12:19:20.705Z,39.8564
2023-05-05T12:20:20.611Z,41.3101
2023-05-05T12:21:20.564Z,41.5283
2023-05-05T12:22:20.501Z,42.0263
2023-05-05T12:23:20.481Z,41.8940
2023-05-05T12:24:20.412Z,41.4745
2023-05-05T12:25:20.410Z,39.9489
2023-05-05T12:26:20.366Z,38.6958
2023-05-05T12:27:20.295Z,38.4069
2023-05-05T12:28:20.387Z,37.8860
2023-05-05T12:29:20.347Z,39.8260
2023-05-05T12:30:20.315Z,38.3377
2023-05-05T12:31:20.278Z,39.7395
2023-05-05T12:32:20.231Z,38.3200